Time;durP1;ratioP1;P1;durP2;ratioP2;P2;SDS_P1;SDS_P2;PMS_P1;PMS_P2;Temp;Humidity;BMP_temperature;BMP_pressure;BME280_temperature;BME280_humidity;BME280_pressure;Samples;Min_cycle;Max_cycle;Signal;HPM_P1;HPM_P2
2022/01/27 00:00:42;;;;;;;237.60;190.30;;;19.80;51.20;;;;;;4738150;55;21038;-42
2022/01/27 00:05:54;;;;;;;221.40;173.55;;;19.80;51.40;;;;;;4803092;55;21532;-35
2022/01/27 00:11:01;;;;;;;223.00;178.40;;;19.80;51.40;;;;;;4737575;59;21654;-36
2022/01/27 00:16:18;;;;;;;225.33;186.63;;;19.80;51.50;;;;;;4740794;55;22089;-45
2022/01/27 00:21:25;;;;;;;222.55;171.93;;;19.80;51.50;;;;;;4751304;55;21476;-39
2022/01/27 00:26:26;;;;;;;226.53;182.20;;;19.80;51.50;;;;;;4759080;55;21014;-46
2022/01/27 00:31:27;;;;;;;226.00;176.63;;;19.80;51.50;;;;;;4762964;55;21381;-40
2022/01/27 00:36:28;;;;;;;223.62;178.27;;;19.80;51.70;;;;;;4749407;55;21002;-39
2022/01/27 00:41:29;;;;;;;233.45;185.90;;;19.80;51.60;;;;;;4773112;55;21461;-39
2022/01/27 00:46:32;;;;;;;221.95;169.65;;;19.80;51.70;;;;;;4739435;55;21089;-40
2022/01/27 00:51:37;;;;;;;228.68;171.37;;;19.80;51.90;;;;;;4793255;55;21492;-43
2022/01/27 00:56:51;;;;;;;225.23;175.30;;;19.80;51.70;;;;;;4760336;55;21104;-40
2022/01/27 01:02:05;;;;;;;227.50;180.85;;;19.80;52.00;;;;;;4784546;55;21539;-46
2022/01/27 01:07:08;;;;;;;237.35;187.68;;;19.80;51.80;;;;;;4743738;55;21500;-41
2022/01/27 01:17:46;;;;;;;227.07;179.87;;;19.80;52.20;;;;;;4798443;55;21058;-41
2022/01/27 01:31:43;;;;;;;224.62;174.68;;;19.70;52.00;;;;;;4745017;55;21100;-41
2022/01/27 01:36:56;;;;;;;239.52;187.00;;;19.70;51.90;;;;;;4775513;55;21543;-39
2022/01/27 01:41:58;;;;;;;224.48;171.15;;;19.70;52.00;;;;;;4742783;55;22081;-36
2022/01/27 01:46:59;;;;;;;222.07;168.75;;;19.70;52.20;;;;;;4778443;55;21109;-40
2022/01/27 01:52:05;;;;;;;223.85;173.02;;;19.70;52.20;;;;;;4743857;55;21005;-39
2022/01/27 01:57:06;;;;;;;218.57;172.55;;;19.70;52.10;;;;;;4744666;55;21041;-38
2022/01/27 02:02:08;;;;;;;235.63;189.13;;;19.70;52.00;;;;;;4737744;59;21014;-37
2022/01/27 02:07:47;;;;;;;231.68;180.70;;;19.70;52.20;;;;;;4745567;55;21574;-43
2022/01/27 02:18:09;;;;;;;230.07;184.70;;;19.60;52.30;;;;;;4737354;59;21085;-36
2022/01/27 02:23:11;;;;;;;229.52;180.68;;;19.60;52.20;;;;;;4749275;55;21077;-51
2022/01/27 02:28:14;;;;;;;227.60;176.40;;;19.70;52.40;;;;;;4753556;55;21108;-42
2022/01/27 02:33:15;;;;;;;227.50;182.90;;;19.60;52.50;;;;;;4748995;55;21029;-35
2022/01/27 02:38:16;;;;;;;230.95;180.50;;;19.60;52.80;;;;;;4738020;59;21002;-39
2022/01/27 02:43:17;;;;;;;229.10;178.75;;;19.60;52.50;;;;;;4737113;59;21495;-43
2022/01/27 02:48:17;;;;;;;227.75;172.45;;;19.60;52.30;;;;;;4739416;55;21100;-39
2022/01/27 02:53:18;;;;;;;220.82;166.62;;;19.60;52.50;;;;;;4738635;59;21002;-41
2022/01/27 02:58:19;;;;;;;220.70;165.50;;;19.50;52.40;;;;;;4753099;55;21090;-36
2022/01/27 03:03:20;;;;;;;216.02;166.55;;;19.60;52.30;;;;;;4765972;55;21045;-41
2022/01/27 03:08:21;;;;;;;221.20;169.20;;;19.60;52.40;;;;;;4794183;55;21047;-35
2022/01/27 03:13:22;;;;;;;222.32;170.57;;;19.60;52.40;;;;;;4769765;55;22200;-38
2022/01/27 03:18:23;;;;;;;225.85;175.68;;;19.60;52.70;;;;;;4749583;55;21797;-39
2022/01/27 03:23:23;;;;;;;217.60;163.25;;;19.50;52.60;;;;;;4833459;55;22090;-38
2022/01/27 03:28:27;;;;;;;215.70;164.77;;;19.50;52.60;;;;;;4746519;55;21057;-42
2022/01/27 03:33:28;;;;;;;221.37;172.85;;;19.50;52.70;;;;;;4776718;55;21009;-39
2022/01/27 03:38:29;;;;;;;217.60;172.70;;;19.60;52.60;;;;;;4778356;55;21500;-38
2022/01/27 03:43:30;;;;;;;221.20;174.98;;;19.50;52.50;;;;;;4740180;55;22372;-35
2022/01/27 03:48:31;;;;;;;218.30;168.37;;;19.60;52.80;;;;;;4760878;55;21105;-36
2022/01/27 03:53:32;;;;;;;216.45;170.07;;;19.50;52.70;;;;;;4738346;55;21034;-38
2022/01/27 03:58:34;;;;;;;209.32;163.35;;;19.50;52.70;;;;;;4755564;55;21866;-39
2022/01/27 04:03:37;;;;;;;213.27;166.37;;;19.50;52.70;;;;;;4761657;55;21157;-34
2022/01/27 04:08:39;;;;;;;204.75;159.27;;;19.50;52.70;;;;;;4747200;55;21488;-34
2022/01/27 04:13:40;;;;;;;216.00;165.85;;;19.50;52.80;;;;;;4749499;55;21528;-39
2022/01/27 04:18:41;;;;;;;210.85;160.98;;;19.50;52.80;;;;;;4750929;55;21029;-38
2022/01/27 04:23:42;;;;;;;207.07;157.85;;;19.50;53.40;;;;;;4751236;55;21101;-35
2022/01/27 04:28:44;;;;;;;205.73;156.85;;;19.50;52.80;;;;;;4788524;55;21009;-44
2022/01/27 04:33:45;;;;;;;199.87;151.80;;;19.50;52.80;;;;;;4757857;55;21464;-35
2022/01/27 04:39:01;;;;;;;208.10;156.25;;;19.50;52.80;;;;;;4737479;59;20974;-41
2022/01/27 04:44:16;;;;;;;208.55;164.35;;;19.50;52.90;;;;;;4786517;55;21528;-37
2022/01/27 04:49:17;;;;;;;201.60;155.50;;;19.50;52.90;;;;;;4754400;55;21610;-38
2022/01/27 04:54:25;;;;;;;204.13;160.10;;;19.50;53.20;;;;;;4755575;55;21013;-40
2022/01/27 04:59:30;;;;;;;200.87;152.38;;;19.40;53.00;;;;;;4754134;55;21476;-41
2022/01/27 05:04:35;;;;;;;190.98;147.50;;;19.40;53.20;;;;;;4740126;55;21479;-38
2022/01/27 05:09:37;;;;;;;207.30;158.80;;;19.40;53.20;;;;;;4737698;59;21464;-40
2022/01/27 05:14:38;;;;;;;200.73;154.52;;;19.40;53.30;;;;;;4742334;55;21026;-35
2022/01/27 05:19:39;;;;;;;199.77;152.12;;;19.40;53.30;;;;;;4758789;55;21102;-39
2022/01/27 05:24:39;;;;;;;192.00;142.98;;;19.40;53.50;;;;;;4765583;55;21184;-39
2022/01/27 05:29:40;;;;;;;195.00;148.20;;;19.40;53.50;;;;;;4758839;55;21018;-36
2022/01/27 05:34:41;;;;;;;187.23;139.15;;;19.40;53.30;;;;;;4740015;55;21014;-36
2022/01/27 05:39:43;;;;;;;191.32;145.57;;;19.40;53.50;;;;;;4759149;55;21179;-41
2022/01/27 05:44:44;;;;;;;200.20;151.68;;;19.40;53.40;;;;;;4743487;55;21488;-36
2022/01/27 05:49:45;;;;;;;187.00;140.18;;;19.40;53.50;;;;;;4738606;59;21604;-40
2022/01/27 05:54:46;;;;;;;186.40;143.80;;;19.40;53.40;;;;;;4751436;55;21018;-36
2022/01/27 05:59:46;;;;;;;186.10;142.15;;;19.30;53.60;;;;;;4795493;55;21065;-42
2022/01/27 06:04:47;;;;;;;181.70;145.18;;;19.40;53.60;;;;;;4756731;55;21089;-40
2022/01/27 06:09:48;;;;;;;180.15;141.98;;;19.30;53.70;;;;;;4742603;55;21103;-37
2022/01/27 06:14:49;;;;;;;178.52;139.45;;;19.30;53.80;;;;;;4763275;55;21694;-52
2022/01/27 06:19:54;;;;;;;167.15;136.18;;;19.30;53.60;;;;;;4737223;59;21109;-36
2022/01/27 06:24:55;;;;;;;179.57;142.75;;;19.30;53.70;;;;;;4761899;55;21507;-38
2022/01/27 06:29:56;;;;;;;174.15;135.50;;;19.30;53.70;;;;;;4740373;55;21007;-42
2022/01/27 06:34:57;;;;;;;173.73;133.07;;;19.30;54.50;;;;;;4763581;55;21460;-47
2022/01/27 06:39:58;;;;;;;163.60;129.48;;;19.30;53.70;;;;;;4737745;59;21456;-37
2022/01/27 06:45:00;;;;;;;169.90;132.35;;;19.30;53.70;;;;;;4783764;55;21026;-35
2022/01/27 06:50:01;;;;;;;168.25;133.18;;;19.30;53.80;;;;;;4765592;55;21575;-36
2022/01/27 06:55:03;;;;;;;162.93;127.30;;;19.30;53.80;;;;;;4737991;59;21089;-37
2022/01/27 07:00:07;;;;;;;168.27;134.90;;;19.30;53.90;;;;;;4771827;55;21597;-35
2022/01/27 07:05:08;;;;;;;168.80;133.00;;;19.30;53.90;;;;;;4737362;59;21006;-51
2022/01/27 07:10:11;;;;;;;165.20;132.27;;;19.30;53.80;;;;;;4761197;55;21058;-40
2022/01/27 07:15:12;;;;;;;162.55;126.53;;;19.30;53.80;;;;;;4751987;55;21074;-41
2022/01/27 07:20:13;;;;;;;162.07;125.35;;;19.30;53.90;;;;;;4769813;55;21491;-35
2022/01/27 07:25:14;;;;;;;164.27;129.87;;;19.30;53.80;;;;;;4759595;55;21030;-46
2022/01/27 07:30:15;;;;;;;159.10;126.30;;;19.30;53.80;;;;;;4737904;59;21022;-41
2022/01/27 07:35:15;;;;;;;164.15;130.35;;;19.30;53.80;;;;;;4752220;55;21555;-44
2022/01/27 07:40:16;;;;;;;171.25;130.00;;;19.30;53.90;;;;;;4762564;55;20998;-37
2022/01/27 07:45:17;;;;;;;165.62;130.45;;;19.30;54.00;;;;;;4740755;55;21101;-46
2022/01/27 07:50:19;;;;;;;155.30;123.95;;;19.20;54.00;;;;;;4738032;59;21030;-40
2022/01/27 07:55:20;;;;;;;156.48;126.57;;;19.20;54.00;;;;;;4740239;55;21097;-36
2022/01/27 08:00:21;;;;;;;161.45;128.20;;;19.20;53.80;;;;;;4741678;55;21022;-39
2022/01/27 08:05:22;;;;;;;164.10;129.82;;;19.20;53.90;;;;;;4747708;55;21200;-47
2022/01/27 08:10:23;;;;;;;155.87;120.90;;;19.30;53.60;;;;;;4737328;59;21048;-44
2022/01/27 08:15:23;;;;;;;161.25;124.35;;;19.60;54.30;;;;;;4779739;55;21065;-34
2022/01/27 08:20:25;;;;;;;162.85;123.68;;;19.80;55.10;;;;;;4737383;55;21164;-37
2022/01/27 08:25:26;;;;;;;153.75;119.28;;;20.00;55.40;;;;;;4751170;55;21038;-43
2022/01/27 08:30:30;;;;;;;155.12;121.18;;;20.20;55.50;;;;;;4737005;59;22172;-37
2022/01/27 08:35:31;;;;;;;163.68;123.43;;;20.40;55.40;;;;;;4776097;55;21484;-33
2022/01/27 08:40:32;;;;;;;150.62;120.10;;;20.50;55.10;;;;;;4761891;55;21211;-45
2022/01/27 08:45:34;;;;;;;154.98;119.82;;;20.60;55.00;;;;;;4740198;55;21090;-44
2022/01/27 08:50:35;;;;;;;156.35;119.93;;;20.70;54.80;;;;;;4743790;55;21092;-37
2022/01/27 08:55:36;;;;;;;153.50;120.85;;;20.80;54.60;;;;;;4737341;59;21646;-32
2022/01/27 09:00:37;;;;;;;153.30;118.00;;;20.90;54.50;;;;;;4737264;55;21017;-35
2022/01/27 09:05:38;;;;;;;159.18;120.22;;;21.00;54.40;;;;;;4735303;59;21015;-39
2022/01/27 09:10:41;;;;;;;157.65;122.82;;;21.10;54.30;;;;;;4738212;59;21476;-47
2022/01/27 09:15:43;;;;;;;158.70;122.35;;;21.10;53.90;;;;;;4740005;55;21487;-37
2022/01/27 09:20:45;;;;;;;158.57;120.45;;;21.20;53.80;;;;;;4768582;55;21579;-38
2022/01/27 09:25:48;;;;;;;157.75;121.97;;;21.20;53.60;;;;;;4767282;55;21528;-41
2022/01/27 09:30:49;;;;;;;154.50;119.62;;;21.30;53.60;;;;;;4756448;55;21567;-45
2022/01/27 09:35:50;;;;;;;160.23;123.55;;;21.40;53.50;;;;;;4738561;55;21043;-40
2022/01/27 09:40:52;;;;;;;159.45;123.13;;;21.40;53.30;;;;;;4738969;55;21613;-42
2022/01/27 09:45:54;;;;;;;161.70;125.10;;;21.40;53.10;;;;;;4737231;55;21082;-44
2022/01/27 09:51:23;;;;;;;163.20;123.97;;;21.40;53.00;;;;;;4779147;55;21014;-44
2022/01/27 09:56:24;;;;;;;163.25;124.87;;;21.50;53.00;;;;;;4749997;55;21634;-36
2022/01/27 10:01:25;;;;;;;157.07;124.47;;;21.60;53.00;;;;;;4742626;55;21033;-42
2022/01/27 10:06:31;;;;;;;163.82;122.35;;;21.60;52.90;;;;;;4751390;55;21053;-37
2022/01/27 10:11:34;;;;;;;161.62;125.97;;;21.60;52.70;;;;;;4747069;55;21515;-36
2022/01/27 10:16:40;;;;;;;166.60;128.95;;;21.60;52.60;;;;;;4748219;55;21049;-36
2022/01/27 10:21:41;;;;;;;167.02;130.20;;;21.70;52.50;;;;;;4749521;55;21472;-49
2022/01/27 10:26:46;;;;;;;165.65;131.73;;;21.60;52.30;;;;;;4737403;59;21546;-39
2022/01/27 10:31:47;;;;;;;168.93;133.55;;;21.60;52.20;;;;;;4737278;59;21468;-41
2022/01/27 10:36:49;;;;;;;180.00;136.30;;;21.60;52.10;;;;;;4747035;55;21037;-38
2022/01/27 10:42:08;;;;;;;183.07;139.10;;;21.60;51.90;;;;;;4741483;55;21508;-39
2022/01/27 10:47:21;;;;;;;187.02;136.57;;;21.60;51.90;;;;;;4758413;55;21535;-37
2022/01/27 10:52:44;;;;;;;183.40;145.40;;;21.60;51.80;;;;;;4749645;55;21631;-41
2022/01/27 10:57:50;;;;;;;199.50;151.98;;;21.60;51.50;;;;;;4738470;55;21503;-39
2022/01/27 11:02:57;;;;;;;196.98;155.82;;;21.60;50.80;;;;;;4737433;59;21516;-38
2022/01/27 11:07:59;;;;;;;196.93;154.17;;;21.60;50.40;;;;;;4755739;55;21085;-36
2022/01/27 11:13:00;;;;;;;200.68;156.77;;;21.60;50.40;;;;;;4751798;55;21611;-36
2022/01/27 11:18:01;;;;;;;202.55;161.50;;;21.60;50.10;;;;;;4746742;55;21061;-37
2022/01/27 11:23:24;;;;;;;207.57;162.07;;;21.60;49.90;;;;;;4767124;55;21500;-36
2022/01/27 11:28:26;;;;;;;197.98;155.30;;;21.60;49.80;;;;;;4756684;55;21592;-54
2022/01/27 11:33:32;;;;;;;200.05;157.02;;;21.60;49.50;;;;;;4787527;55;21077;-47
2022/01/27 11:38:33;;;;;;;200.65;158.57;;;21.70;49.60;;;;;;4877112;55;21515;-37
2022/01/27 11:43:34;;;;;;;198.70;153.87;;;21.70;49.80;;;;;;4770053;55;21070;-44
2022/01/27 11:48:35;;;;;;;189.80;151.30;;;21.80;50.00;;;;;;4754208;55;21061;-49
2022/01/27 11:53:45;;;;;;;193.00;153.82;;;21.80;50.10;;;;;;4755876;55;21061;-41
2022/01/27 11:58:48;;;;;;;187.80;148.57;;;21.80;50.10;;;;;;4767289;55;21417;-45
2022/01/27 12:07:20;;;;;;;189.25;150.85;;;21.80;50.40;;;;;;4763496;55;21081;-49
2022/01/27 12:12:31;;;;;;;191.32;145.68;;;21.90;50.70;;;;;;4767022;55;21226;-55
2022/01/27 12:17:34;;;;;;;177.73;139.88;;;21.90;50.60;;;;;;4740929;55;21618;-43
2022/01/27 12:23:14;;;;;;;180.65;141.82;;;21.90;51.20;;;;;;4736463;59;20998;-42
2022/01/27 12:28:15;;;;;;;188.12;146.40;;;21.90;50.60;;;;;;4744408;55;21544;-39
2022/01/27 12:33:18;;;;;;;187.05;143.93;;;22.00;50.80;;;;;;4735974;55;21010;-43
2022/01/27 12:38:19;;;;;;;179.87;142.77;;;22.00;50.80;;;;;;4774103;55;21006;-57
2022/01/27 12:43:21;;;;;;;186.98;145.02;;;22.00;51.00;;;;;;4755880;55;21009;-55
2022/01/27 12:48:25;;;;;;;176.95;136.52;;;22.00;51.00;;;;;;4793221;55;21575;-39
2022/01/27 12:53:28;;;;;;;182.95;141.25;;;22.00;51.00;;;;;;4744737;55;21435;-39
2022/01/27 12:58:31;;;;;;;179.60;140.10;;;22.00;50.90;;;;;;4763278;55;21114;-53
2022/01/27 13:03:32;;;;;;;176.35;138.35;;;22.00;51.00;;;;;;4781819;55;21575;-42
2022/01/27 13:08:39;;;;;;;173.60;137.02;;;22.00;51.10;;;;;;4739008;55;21002;-48
2022/01/27 13:13:41;;;;;;;164.80;133.98;;;22.10;51.30;;;;;;4756454;55;22167;-42
2022/01/27 13:19:00;;;;;;;172.60;136.23;;;22.10;51.30;;;;;;4736516;59;21659;-43
2022/01/27 13:24:08;;;;;;;168.90;135.05;;;22.10;52.00;;;;;;4739189;55;21541;-44
2022/01/27 13:29:08;;;;;;;169.25;131.23;;;22.10;51.40;;;;;;4742859;55;21484;-47
2022/01/27 13:34:09;;;;;;;165.52;131.70;;;22.10;51.40;;;;;;4747771;55;21006;-50
2022/01/27 13:39:36;;;;;;;164.13;130.20;;;22.10;51.50;;;;;;4741685;55;21010;-46
2022/01/27 13:44:57;;;;;;;160.40;125.67;;;22.20;51.70;;;;;;4744322;55;21611;-42
2022/01/27 13:50:10;;;;;;;157.02;124.68;;;22.20;51.80;;;;;;4741751;55;21002;-49
2022/01/27 13:55:14;;;;;;;156.63;125.25;;;22.20;51.90;;;;;;4750362;55;21013;-44
2022/01/27 14:00:20;;;;;;;158.48;126.93;;;22.20;52.00;;;;;;4743231;55;21069;-41
2022/01/27 14:05:22;;;;;;;154.27;124.25;;;22.20;51.50;;;;;;4745955;55;21511;-46
2022/01/27 14:10:29;;;;;;;151.23;119.37;;;22.10;51.20;;;;;;4785741;55;21038;-50
2022/01/27 14:15:39;;;;;;;150.82;122.80;;;22.10;51.00;;;;;;4750808;55;22010;-39
2022/01/27 14:21:42;;;;;;;152.75;124.28;;;22.10;50.70;;;;;;4751262;55;21527;-42
2022/01/27 14:26:57;;;;;;;157.10;123.70;;;22.10;50.50;;;;;;4737583;55;21499;-51
2022/01/27 14:31:58;;;;;;;153.45;122.28;;;22.00;50.20;;;;;;4747522;55;21500;-44
2022/01/27 14:37:00;;;;;;;153.65;122.32;;;22.00;50.00;;;;;;4738409;59;21014;-41
2022/01/27 14:42:00;;;;;;;150.87;124.68;;;22.00;49.90;;;;;;4746810;55;21468;-42
2022/01/27 14:47:05;;;;;;;153.38;119.60;;;22.00;49.60;;;;;;4749481;55;21089;-49
2022/01/27 14:52:11;;;;;;;151.00;121.68;;;22.00;49.30;;;;;;4786759;55;21069;-47
2022/01/27 14:57:13;;;;;;;150.05;121.22;;;22.00;49.40;;;;;;4738260;59;21058;-42
2022/01/27 15:02:14;;;;;;;152.25;119.13;;;22.10;49.50;;;;;;4782576;55;21635;-42
2022/01/27 15:07:15;;;;;;;151.07;120.57;;;22.10;49.70;;;;;;4765890;55;21114;-39
2022/01/27 15:12:16;;;;;;;150.43;119.50;;;22.20;49.80;;;;;;4751760;55;21551;-47
2022/01/27 15:22:36;;;;;;;149.40;122.25;;;22.00;49.70;;;;;;4737371;55;21026;-55
2022/01/27 15:27:37;;;;;;;144.73;116.47;;;21.90;49.80;;;;;;4748953;55;21105;-40
2022/01/27 15:32:38;;;;;;;147.23;119.75;;;21.90;49.80;;;;;;4737443;55;21539;-52
2022/01/27 15:37:43;;;;;;;149.87;118.87;;;21.80;49.90;;;;;;4783714;55;21483;-52
2022/01/27 15:42:46;;;;;;;149.07;122.13;;;21.80;50.10;;;;;;4750060;55;21503;-36
2022/01/27 15:47:47;;;;;;;156.40;123.15;;;21.70;50.10;;;;;;4777806;55;21480;-47
2022/01/27 15:52:48;;;;;;;155.55;124.60;;;21.60;50.10;;;;;;4750458;55;21013;-53
2022/01/27 15:57:49;;;;;;;154.87;122.75;;;21.60;50.20;;;;;;4740501;55;21627;-53
2022/01/27 16:02:50;;;;;;;153.98;123.70;;;21.60;50.20;;;;;;4749785;55;21006;-56
2022/01/27 16:07:51;;;;;;;163.70;125.47;;;21.60;50.20;;;;;;4772051;55;21665;-54
2022/01/27 16:12:53;;;;;;;166.27;130.75;;;21.50;50.60;;;;;;4739336;55;21029;-43
2022/01/27 16:17:54;;;;;;;161.10;129.55;;;21.40;49.90;;;;;;4750154;55;21559;-51
2022/01/27 16:22:57;;;;;;;160.80;130.18;;;21.30;49.90;;;;;;4746599;55;21022;-61
2022/01/27 16:27:58;;;;;;;165.52;133.02;;;21.20;49.80;;;;;;4747063;55;21422;-51
2022/01/27 16:32:59;;;;;;;162.10;132.48;;;21.20;49.70;;;;;;4752385;55;21030;-53
2022/01/27 16:38:00;;;;;;;162.95;133.40;;;21.10;49.60;;;;;;4748376;55;20994;-45
2022/01/27 16:43:02;;;;;;;161.82;128.80;;;21.10;49.60;;;;;;4738663;55;21082;-64
2022/01/27 16:48:03;;;;;;;172.05;138.25;;;21.00;49.50;;;;;;4738566;55;21488;-64
2022/01/27 16:53:07;;;;;;;173.45;137.07;;;21.00;49.40;;;;;;4749909;55;21005;-59
2022/01/27 16:58:08;;;;;;;180.20;143.98;;;20.90;49.30;;;;;;4766296;55;21556;-47
2022/01/27 17:03:10;;;;;;;182.02;144.62;;;20.90;49.30;;;;;;4759006;55;21062;-39
2022/01/27 17:08:11;;;;;;;173.73;140.75;;;20.90;49.20;;;;;;4764657;55;21479;-41
2022/01/27 17:13:12;;;;;;;172.23;137.95;;;20.80;49.10;;;;;;4737382;59;21013;-57
2022/01/27 17:18:13;;;;;;;181.00;145.70;;;20.80;49.00;;;;;;4768181;55;21444;-48
2022/01/27 17:23:14;;;;;;;174.48;142.85;;;20.70;48.90;;;;;;4737053;59;21526;-37
2022/01/27 17:28:15;;;;;;;181.55;147.52;;;20.70;48.90;;;;;;4743692;55;21078;-58
2022/01/27 17:33:16;;;;;;;180.80;140.68;;;20.70;48.80;;;;;;4738445;59;21527;-58
2022/01/27 17:38:17;;;;;;;176.95;139.60;;;20.70;48.70;;;;;;4741236;55;20994;-61
2022/01/27 17:43:24;;;;;;;183.50;144.02;;;20.70;48.60;;;;;;4744766;55;21086;-43
2022/01/27 17:48:26;;;;;;;180.27;146.15;;;20.60;48.50;;;;;;4761541;55;21472;-38
2022/01/27 17:53:26;;;;;;;187.98;146.82;;;20.60;48.50;;;;;;4738112;59;21065;-50
2022/01/27 17:58:31;;;;;;;190.77;151.15;;;20.50;48.40;;;;;;4751291;55;21006;-45
2022/01/27 18:03:32;;;;;;;191.25;150.20;;;20.50;48.30;;;;;;4738578;59;21014;-55
2022/01/27 18:08:37;;;;;;;190.23;151.70;;;20.50;48.30;;;;;;4749431;55;21472;-63
2022/01/27 18:13:39;;;;;;;180.40;144.87;;;20.50;48.20;;;;;;4750399;55;21532;-52
2022/01/27 18:18:40;;;;;;;196.32;156.40;;;20.50;48.10;;;;;;4738061;57;21460;-61
2022/01/27 18:23:41;;;;;;;186.75;148.05;;;20.50;48.10;;;;;;4777275;55;21022;-36
2022/01/27 18:28:45;;;;;;;180.43;140.15;;;20.40;48.00;;;;;;4747100;55;21097;-50
2022/01/27 18:33:45;;;;;;;186.35;148.07;;;20.40;48.00;;;;;;4749655;55;21026;-64
2022/01/27 18:38:46;;;;;;;200.38;162.10;;;20.40;47.90;;;;;;4737516;59;21002;-47
2022/01/27 18:43:49;;;;;;;201.55;159.75;;;20.40;48.40;;;;;;4747557;55;21026;-63
2022/01/27 18:48:52;;;;;;;188.85;149.77;;;20.40;47.70;;;;;;4793703;55;21522;-36
2022/01/27 18:53:52;;;;;;;204.07;163.15;;;20.30;47.70;;;;;;4784973;55;21525;-58
2022/01/27 18:58:54;;;;;;;191.52;148.23;;;20.30;47.60;;;;;;4742440;55;20998;-45
2022/01/27 19:03:55;;;;;;;203.43;162.37;;;20.30;47.60;;;;;;4748168;55;21014;-44
2022/01/27 19:08:56;;;;;;;196.50;153.32;;;20.30;47.50;;;;;;4743635;55;21483;-47
2022/01/27 19:13:57;;;;;;;198.05;156.73;;;20.30;47.40;;;;;;4761559;55;21049;-38
2022/01/27 19:19:01;;;;;;;202.60;159.52;;;20.20;47.30;;;;;;4752245;55;21512;-53
2022/01/27 19:24:05;;;;;;;196.52;156.85;;;20.20;47.40;;;;;;4739136;55;21021;-54
2022/01/27 19:29:06;;;;;;;198.55;160.23;;;20.20;47.20;;;;;;4745047;55;21539;-37
2022/01/27 19:34:07;;;;;;;208.18;162.32;;;20.20;47.20;;;;;;4760325;55;21010;-37
2022/01/27 19:39:11;;;;;;;206.52;165.52;;;20.20;47.20;;;;;;4738188;55;21006;-39
2022/01/27 19:44:12;;;;;;;204.90;160.88;;;20.20;47.10;;;;;;4737539;59;21510;-57
2022/01/27 19:49:16;;;;;;;202.23;163.02;;;20.20;47.10;;;;;;4737742;59;21508;-53
2022/01/27 19:54:19;;;;;;;206.73;167.32;;;20.10;47.00;;;;;;4743771;55;21053;-42
2022/01/27 19:59:19;;;;;;;203.60;163.07;;;20.20;46.90;;;;;;4741721;55;21539;-38
2022/01/27 20:04:20;;;;;;;210.13;164.50;;;20.10;46.80;;;;;;4749851;55;21153;-45
2022/01/27 20:09:21;;;;;;;212.48;171.27;;;20.10;46.80;;;;;;4743037;55;21022;-49
2022/01/27 20:14:22;;;;;;;211.43;173.68;;;20.10;47.50;;;;;;4750002;55;21516;-54
2022/01/27 20:19:23;;;;;;;206.32;168.30;;;20.10;46.60;;;;;;4737560;59;21129;-56
2022/01/27 20:24:25;;;;;;;214.63;172.73;;;20.10;46.60;;;;;;4737493;59;21065;-49
2022/01/27 20:29:27;;;;;;;210.77;172.32;;;20.10;46.40;;;;;;4739591;55;21514;-57
2022/01/27 20:34:28;;;;;;;216.60;172.80;;;20.10;46.50;;;;;;4765551;55;21540;-43
2022/01/27 20:39:34;;;;;;;202.18;159.55;;;20.10;46.40;;;;;;4761447;55;20989;-54
2022/01/27 20:44:35;;;;;;;200.25;161.32;;;20.00;46.20;;;;;;4738069;56;21078;-39
2022/01/27 20:49:36;;;;;;;197.02;159.57;;;20.00;46.30;;;;;;4737964;59;21002;-54
2022/01/27 20:54:37;;;;;;;204.13;156.30;;;20.00;46.30;;;;;;4738986;55;21461;-58
2022/01/27 20:59:38;;;;;;;204.07;161.35;;;20.00;46.20;;;;;;4763877;55;21002;-62
2022/01/27 21:04:39;;;;;;;214.48;173.52;;;20.00;46.10;;;;;;4739795;55;21026;-47
2022/01/27 21:09:42;;;;;;;212.43;175.10;;;20.00;46.10;;;;;;4738164;59;21017;-57
2022/01/27 21:14:43;;;;;;;208.95;159.70;;;20.00;46.10;;;;;;4752227;55;21160;-37
2022/01/27 21:19:43;;;;;;;215.82;175.23;;;20.00;46.00;;;;;;4743534;55;21014;-51
2022/01/27 21:24:44;;;;;;;218.60;179.57;;;20.00;46.10;;;;;;4739998;55;21002;-54
2022/01/27 21:29:46;;;;;;;215.12;170.43;;;19.90;45.90;;;;;;4745494;55;21459;-42
2022/01/27 21:34:50;;;;;;;215.12;167.60;;;19.90;45.90;;;;;;4738099;59;21463;-56
2022/01/27 21:39:51;;;;;;;228.98;185.32;;;19.90;45.80;;;;;;4742701;55;21472;-35
2022/01/27 21:44:52;;;;;;;222.60;178.77;;;19.90;45.70;;;;;;4756102;55;21017;-37
2022/01/27 21:49:53;;;;;;;220.18;176.77;;;19.90;45.70;;;;;;4756296;55;21449;-45
2022/01/27 21:54:54;;;;;;;214.32;171.48;;;19.90;45.60;;;;;;4743853;55;21480;-41
2022/01/27 21:59:55;;;;;;;213.02;168.70;;;19.90;45.50;;;;;;4738172;55;21014;-58
2022/01/27 22:04:57;;;;;;;220.05;177.50;;;19.90;45.50;;;;;;4737993;55;21516;-59
2022/01/27 22:09:58;;;;;;;208.82;163.82;;;19.90;45.50;;;;;;4745078;55;20994;-45
2022/01/27 22:14:59;;;;;;;214.77;173.95;;;19.90;45.40;;;;;;4763496;55;21178;-42
2022/01/27 22:20:01;;;;;;;224.23;183.73;;;19.80;45.30;;;;;;4773774;55;20998;-44
2022/01/27 22:25:01;;;;;;;227.43;182.93;;;19.80;45.30;;;;;;4784003;55;21033;-40
2022/01/27 22:30:04;;;;;;;214.38;168.70;;;19.80;45.20;;;;;;4759027;55;21496;-56
2022/01/27 22:35:06;;;;;;;228.15;180.27;;;19.80;45.20;;;;;;4738137;59;21041;-48
2022/01/27 22:40:10;;;;;;;216.18;170.93;;;19.80;45.10;;;;;;4768935;55;21005;-38
2022/01/27 22:45:10;;;;;;;222.35;179.98;;;19.80;45.00;;;;;;4754878;55;22019;-53
2022/01/27 22:50:18;;;;;;;223.32;175.20;;;19.80;45.00;;;;;;4737578;59;21037;-40
2022/01/27 22:55:19;;;;;;;224.93;174.43;;;19.80;45.00;;;;;;4750927;55;21540;-58
2022/01/27 23:00:24;;;;;;;227.55;181.25;;;19.80;45.00;;;;;;4745278;55;21054;-45
2022/01/27 23:05:25;;;;;;;221.25;175.55;;;19.80;45.00;;;;;;4737896;55;21507;-62
2022/01/27 23:10:26;;;;;;;226.62;178.70;;;19.80;44.90;;;;;;4739980;55;20998;-37
2022/01/27 23:17:06;;;;;;;219.25;171.35;;;19.80;44.80;;;;;;4759748;55;21041;-56
2022/01/27 23:22:17;;;;;;;229.05;187.27;;;19.70;44.50;;;;;;4743549;55;21177;-40
2022/01/27 23:27:18;;;;;;;211.45;164.07;;;19.70;44.50;;;;;;4772904;55;21575;-41
2022/01/27 23:32:20;;;;;;;229.32;182.25;;;19.70;44.60;;;;;;4744077;55;21046;-36
2022/01/27 23:38:19;;;;;;;225.35;181.82;;;19.70;44.60;;;;;;4737893;59;21078;-61
2022/01/27 23:43:45;;;;;;;228.43;180.52;;;19.70;44.50;;;;;;4752498;55;21062;-51
2022/01/27 23:48:52;;;;;;;216.70;168.18;;;19.70;44.30;;;;;;4739997;55;21093;-58
2022/01/27 23:54:14;;;;;;;224.60;180.15;;;19.70;44.40;;;;;;4766901;55;22006;-49
2022/01/27 23:59:21;;;;;;;223.90;178.87;;;19.70;44.30;;;;;;4745799;55;21495;-47
